sensor_id;sensor_type;location;lat;lon;timestamp;pressure;altitude;pressure_sealevel;temperature;humidity
49583;BME280;36329;48.816;44.624;2022-08-20T00:01:27;101336;;;22.4;31.4
49583;BME280;36329;48.816;44.624;2022-08-20T00:04:31;101345;;;22.4;31.3
49583;BME280;36329;48.816;44.624;2022-08-20T00:07:38;101350;;;22.4;30.9
49583;BME280;36329;48.816;44.624;2022-08-20T00:10:42;101352;;;22.3;31.4
49583;BME280;36329;48.816;44.624;2022-08-20T00:13:47;101344;;;22.2;31.3
49583;BME280;36329;48.816;44.624;2022-08-20T00:16:53;101349;;;22.3;30.3
49583;BME280;36329;48.816;44.624;2022-08-20T00:20:00;101347;;;22.3;30.1
49583;BME280;36329;48.816;44.624;2022-08-20T00:23:03;101347;;;22.3;30.1
49583;BME280;36329;48.816;44.624;2022-08-20T00:26:11;101340;;;22.3;30.6
49583;BME280;36329;48.816;44.624;2022-08-20T00:29:14;101341;;;22.2;31.2
49583;BME280;36329;48.816;44.624;2022-08-20T00:32:15;101336;;;22.2;31.6
49583;BME280;36329;48.816;44.624;2022-08-20T00:35:29;101329;;;22.1;32.4
49583;BME280;36329;48.816;44.624;2022-08-20T00:38:39;101338;;;22;32.8
49583;BME280;36329;48.816;44.624;2022-08-20T00:41:41;101342;;;22;33
49583;BME280;36329;48.816;44.624;2022-08-20T00:44:44;101343;;;22;33.6
49583;BME280;36329;48.816;44.624;2022-08-20T00:47:46;101357;;;21.9;33.6
49583;BME280;36329;48.816;44.624;2022-08-20T00:50:48;101346;;;21.9;33.7
49583;BME280;36329;48.816;44.624;2022-08-20T00:53:49;101352;;;21.8;34
49583;BME280;36329;48.816;44.624;2022-08-20T00:56:56;101365;;;21.8;33.7
49583;BME280;36329;48.816;44.624;2022-08-20T01:00:08;101361;;;21.9;33.8
49583;BME280;36329;48.816;44.624;2022-08-20T01:03:17;101363;;;21.8;33.8
49583;BME280;36329;48.816;44.624;2022-08-20T01:06:19;101360;;;21.8;34.1
49583;BME280;36329;48.816;44.624;2022-08-20T01:09:26;101368;;;21.8;33.8
49583;BME280;36329;48.816;44.624;2022-08-20T01:12:30;101371;;;21.7;33.5
49583;BME280;36329;48.816;44.624;2022-08-20T01:15:31;101370;;;21.7;33
49583;BME280;36329;48.816;44.624;2022-08-20T01:18:35;101374;;;21.8;32.2
49583;BME280;36329;48.816;44.624;2022-08-20T01:21:37;101375;;;21.9;31.6
49583;BME280;36329;48.816;44.624;2022-08-20T01:24:39;101377;;;21.8;31.4
49583;BME280;36329;48.816;44.624;2022-08-20T01:27:49;101384;;;21.8;31.2
49583;BME280;36329;48.816;44.624;2022-08-20T01:30:51;101386;;;21.9;30.9
49583;BME280;36329;48.816;44.624;2022-08-20T01:34:13;101389;;;21.8;31
49583;BME280;36329;48.816;44.624;2022-08-20T01:37:15;101399;;;21.8;31.3
49583;BME280;36329;48.816;44.624;2022-08-20T01:40:28;101398;;;21.7;30.8
49583;BME280;36329;48.816;44.624;2022-08-20T01:43:34;101400;;;21.7;30.7
49583;BME280;36329;48.816;44.624;2022-08-20T01:46:38;101401;;;21.8;30.9
49583;BME280;36329;48.816;44.624;2022-08-20T01:49:42;101399;;;21.8;31
49583;BME280;36329;48.816;44.624;2022-08-20T01:52:56;101400;;;21.8;30.9
49583;BME280;36329;48.816;44.624;2022-08-20T01:56:07;101413;;;21.7;31
49583;BME280;36329;48.816;44.624;2022-08-20T01:59:09;101407;;;21.7;30.8
49583;BME280;36329;48.816;44.624;2022-08-20T02:02:13;101411;;;21.7;31.1
49583;BME280;36329;48.816;44.624;2022-08-20T02:05:19;101414;;;21.7;31.1
49583;BME280;36329;48.816;44.624;2022-08-20T02:08:22;101422;;;21.7;31.2
49583;BME280;36329;48.816;44.624;2022-08-20T02:11:31;101423;;;21.7;31.4
49583;BME280;36329;48.816;44.624;2022-08-20T02:14:34;101435;;;21.6;31.9
49583;BME280;36329;48.816;44.624;2022-08-20T02:17:41;101443;;;21.6;32.5
49583;BME280;36329;48.816;44.624;2022-08-20T02:20:43;101444;;;21.6;32.7
49583;BME280;36329;48.816;44.624;2022-08-20T02:23:45;101442;;;21.6;32.8
49583;BME280;36329;48.816;44.624;2022-08-20T02:26:49;101438;;;21.6;32.8
49583;BME280;36329;48.816;44.624;2022-08-20T02:29:52;101443;;;21.5;33.3
49583;BME280;36329;48.816;44.624;2022-08-20T02:33:07;101439;;;21.5;33.6
49583;BME280;36329;48.816;44.624;2022-08-20T02:36:09;101447;;;21.5;34.1
49583;BME280;36329;48.816;44.624;2022-08-20T02:39:11;101454;;;21.4;35.1
49583;BME280;36329;48.816;44.624;2022-08-20T02:42:13;101459;;;21.3;35.9
49583;BME280;36329;48.816;44.624;2022-08-20T02:45:16;101461;;;21.3;36.4
49583;BME280;36329;48.816;44.624;2022-08-20T02:48:19;101458;;;21.3;36.7
49583;BME280;36329;48.816;44.624;2022-08-20T02:51:22;101464;;;21.3;37.2
49583;BME280;36329;48.816;44.624;2022-08-20T02:54:24;101458;;;21.3;37.7
49583;BME280;36329;48.816;44.624;2022-08-20T02:57:27;101459;;;21.3;38.5
49583;BME280;36329;48.816;44.624;2022-08-20T03:00:29;101466;;;21.1;38.5
49583;BME280;36329;48.816;44.624;2022-08-20T03:03:37;101466;;;21.1;39.1
49583;BME280;36329;48.816;44.624;2022-08-20T03:06:39;101471;;;21.1;39.6
49583;BME280;36329;48.816;44.624;2022-08-20T03:09:41;101468;;;21.1;38.9
49583;BME280;36329;48.816;44.624;2022-08-20T03:12:42;101470;;;21;39.4
49583;BME280;36329;48.816;44.624;2022-08-20T03:15:48;101476;;;21;39.3
49583;BME280;36329;48.816;44.624;2022-08-20T03:18:51;101471;;;20.9;39.4
49583;BME280;36329;48.816;44.624;2022-08-20T03:21:52;101476;;;20.9;39
49583;BME280;36329;48.816;44.624;2022-08-20T03:24:54;101485;;;20.9;39.1
49583;BME280;36329;48.816;44.624;2022-08-20T03:28:07;101478;;;21;38.5
49583;BME280;36329;48.816;44.624;2022-08-20T03:31:09;101494;;;21.1;38.1
49583;BME280;36329;48.816;44.624;2022-08-20T03:34:11;101495;;;21.1;38.2
49583;BME280;36329;48.816;44.624;2022-08-20T03:37:17;101494;;;21.1;38.3
49583;BME280;36329;48.816;44.624;2022-08-20T03:40:27;101491;;;21.1;38
49583;BME280;36329;48.816;44.624;2022-08-20T03:43:34;101502;;;21.1;37.5
49583;BME280;36329;48.816;44.624;2022-08-20T03:46:41;101497;;;21.1;36.8
49583;BME280;36329;48.816;44.624;2022-08-20T03:49:43;101503;;;21.2;35.9
49583;BME280;36329;48.816;44.624;2022-08-20T03:52:45;101497;;;21.2;35.7
49583;BME280;36329;48.816;44.624;2022-08-20T03:55:47;101492;;;21.3;35.1
49583;BME280;36329;48.816;44.624;2022-08-20T03:58:49;101501;;;21.4;32.3
49583;BME280;36329;48.816;44.624;2022-08-20T04:01:51;101495;;;21.6;31.7
49583;BME280;36329;48.816;44.624;2022-08-20T04:04:53;101496;;;21.7;31.5
49583;BME280;36329;48.816;44.624;2022-08-20T04:07:55;101495;;;21.9;30.8
49583;BME280;36329;48.816;44.624;2022-08-20T04:11:07;101477;;;22;29.9
49583;BME280;36329;48.816;44.624;2022-08-20T04:14:10;101471;;;22.1;28.9
49583;BME280;36329;48.816;44.624;2022-08-20T04:17:12;101471;;;22.1;28.4
49583;BME280;36329;48.816;44.624;2022-08-20T04:20:16;101476;;;22.1;28.5
49583;BME280;36329;48.816;44.624;2022-08-20T04:23:19;101481;;;22.2;28.9
49583;BME280;36329;48.816;44.624;2022-08-20T04:26:21;101468;;;22.2;28.9
49583;BME280;36329;48.816;44.624;2022-08-20T04:29:28;101476;;;22.2;29.1
49583;BME280;36329;48.816;44.624;2022-08-20T04:32:36;101491;;;22.3;28.5
49583;BME280;36329;48.816;44.624;2022-08-20T04:35:43;101493;;;22.4;28.9
49583;BME280;36329;48.816;44.624;2022-08-20T04:38:44;101485;;;22.5;28.9
49583;BME280;36329;48.816;44.624;2022-08-20T04:41:46;101485;;;22.5;28.9
49583;BME280;36329;48.816;44.624;2022-08-20T04:44:47;101490;;;22.5;28.6
49583;BME280;36329;48.816;44.624;2022-08-20T04:47:50;101485;;;22.6;28.6
49583;BME280;36329;48.816;44.624;2022-08-20T04:50:52;101488;;;22.6;28.6
49583;BME280;36329;48.816;44.624;2022-08-20T04:53:55;101489;;;22.6;28.9
49583;BME280;36329;48.816;44.624;2022-08-20T04:56:57;101494;;;22.8;29.3
49583;BME280;36329;48.816;44.624;2022-08-20T04:59:59;101486;;;22.6;28.9
49583;BME280;36329;48.816;44.624;2022-08-20T05:03:06;101477;;;22.7;29.4
49583;BME280;36329;48.816;44.624;2022-08-20T05:06:09;101478;;;22.8;29.9
49583;BME280;36329;48.816;44.624;2022-08-20T05:09:11;101473;;;22.8;29.9
49583;BME280;36329;48.816;44.624;2022-08-20T05:12:13;101476;;;22.8;30.5
49583;BME280;36329;48.816;44.624;2022-08-20T05:15:14;101481;;;23;31.4
49583;BME280;36329;48.816;44.624;2022-08-20T05:18:18;101478;;;23;32.1
49583;BME280;36329;48.816;44.624;2022-08-20T05:21:20;101483;;;23;32.1
49583;BME280;36329;48.816;44.624;2022-08-20T05:24:27;101482;;;23.2;32.1
49583;BME280;36329;48.816;44.624;2022-08-20T05:27:29;101485;;;23.1;31.5
49583;BME280;36329;48.816;44.624;2022-08-20T05:30:30;101485;;;23.3;30.9
49583;BME280;36329;48.816;44.624;2022-08-20T05:33:42;101495;;;23.3;28.8
49583;BME280;36329;48.816;44.624;2022-08-20T05:36:48;101493;;;23.5;28
49583;BME280;36329;48.816;44.624;2022-08-20T05:39:56;101505;;;23.6;28.4
49583;BME280;36329;48.816;44.624;2022-08-20T05:42:58;101501;;;23.8;27.8
49583;BME280;36329;48.816;44.624;2022-08-20T05:46:04;101495;;;23.8;28.2
49583;BME280;36329;48.816;44.624;2022-08-20T05:49:15;101498;;;24;27.8
49583;BME280;36329;48.816;44.624;2022-08-20T05:52:16;101499;;;24.1;28.3
49583;BME280;36329;48.816;44.624;2022-08-20T05:55:18;101502;;;24.3;27.5
49583;BME280;36329;48.816;44.624;2022-08-20T05:58:23;101496;;;24.4;27.6
49583;BME280;36329;48.816;44.624;2022-08-20T06:01:31;101501;;;24.5;27.8
49583;BME280;36329;48.816;44.624;2022-08-20T06:04:39;101504;;;24.8;27.7
49583;BME280;36329;48.816;44.624;2022-08-20T06:07:41;101496;;;25.1;27.1
49583;BME280;36329;48.816;44.624;2022-08-20T06:10:42;101493;;;25.3;27.3
49583;BME280;36329;48.816;44.624;2022-08-20T06:13:49;101491;;;25.1;26.5
49583;BME280;36329;48.816;44.624;2022-08-20T06:16:52;101490;;;25.1;27.2
49583;BME280;36329;48.816;44.624;2022-08-20T06:19:54;101481;;;25.3;27.1
49583;BME280;36329;48.816;44.624;2022-08-20T06:23:02;101480;;;25.5;27.1
49583;BME280;36329;48.816;44.624;2022-08-20T06:26:14;101480;;;25.4;26.3
49583;BME280;36329;48.816;44.624;2022-08-20T06:29:16;101483;;;25.6;26.6
49583;BME280;36329;48.816;44.624;2022-08-20T06:32:33;101482;;;25.6;26.7
49583;BME280;36329;48.816;44.624;2022-08-20T06:35:34;101483;;;25.7;26.9
49583;BME280;36329;48.816;44.624;2022-08-20T06:38:36;101480;;;25.9;25.9
49583;BME280;36329;48.816;44.624;2022-08-20T06:41:37;101481;;;25.9;27.3
49583;BME280;36329;48.816;44.624;2022-08-20T06:44:39;101485;;;25.8;26.7
49583;BME280;36329;48.816;44.624;2022-08-20T06:47:46;101487;;;25.9;26.9
49583;BME280;36329;48.816;44.624;2022-08-20T06:50:48;101489;;;26;26.5
49583;BME280;36329;48.816;44.624;2022-08-20T06:53:50;101482;;;26.2;26
49583;BME280;36329;48.816;44.624;2022-08-20T06:56:51;101501;;;26.1;25.2
49583;BME280;36329;48.816;44.624;2022-08-20T06:59:53;101493;;;26.1;25.8
49583;BME280;36329;48.816;44.624;2022-08-20T07:02:55;101494;;;26.2;25.9
49583;BME280;36329;48.816;44.624;2022-08-20T07:05:57;101496;;;26.2;24.5
49583;BME280;36329;48.816;44.624;2022-08-20T07:08:58;101512;;;26.1;24.8
49583;BME280;36329;48.816;44.624;2022-08-20T07:12:00;101494;;;26.3;24.4
49583;BME280;36329;48.816;44.624;2022-08-20T07:15:02;101500;;;26.4;24.7
49583;BME280;36329;48.816;44.624;2022-08-20T07:18:10;101491;;;26.6;25
49583;BME280;36329;48.816;44.624;2022-08-20T07:21:12;101495;;;26.8;25.2
49583;BME280;36329;48.816;44.624;2022-08-20T07:24:19;101478;;;26.6;24
49583;BME280;36329;48.816;44.624;2022-08-20T07:27:22;101489;;;26.8;25.1
49583;BME280;36329;48.816;44.624;2022-08-20T07:30:25;101484;;;27;24.4
49583;BME280;36329;48.816;44.624;2022-08-20T07:33:33;101482;;;27.3;25
49583;BME280;36329;48.816;44.624;2022-08-20T07:36:35;101474;;;27.3;24.4
49583;BME280;36329;48.816;44.624;2022-08-20T07:39:36;101483;;;27.7;24
49583;BME280;36329;48.816;44.624;2022-08-20T07:42:38;101469;;;27.8;23.7
49583;BME280;36329;48.816;44.624;2022-08-20T07:45:40;101477;;;28;24.6
49583;BME280;36329;48.816;44.624;2022-08-20T07:48:48;101472;;;28.1;22.6
49583;BME280;36329;48.816;44.624;2022-08-20T07:51:57;101488;;;28.2;23.3
49583;BME280;36329;48.816;44.624;2022-08-20T07:55:06;101468;;;28.6;23.8
49583;BME280;36329;48.816;44.624;2022-08-20T07:58:12;101468;;;28.6;22.5
49583;BME280;36329;48.816;44.624;2022-08-20T08:01:14;101461;;;28.4;22.6
49583;BME280;36329;48.816;44.624;2022-08-20T08:04:21;101474;;;28.8;22.7
49583;BME280;36329;48.816;44.624;2022-08-20T08:07:23;101468;;;29;22.5
49583;BME280;36329;48.816;44.624;2022-08-20T08:10:31;101470;;;28.7;23.1
49583;BME280;36329;48.816;44.624;2022-08-20T08:13:39;101472;;;28.7;22.4
49583;BME280;36329;48.816;44.624;2022-08-20T08:16:41;101473;;;28.5;22.3
49583;BME280;36329;48.816;44.624;2022-08-20T08:19:46;101486;;;28.5;22.7
49583;BME280;36329;48.816;44.624;2022-08-20T08:22:49;101501;;;28.4;22.9
49583;BME280;36329;48.816;44.624;2022-08-20T08:26:02;101478;;;28.1;22.2
49583;BME280;36329;48.816;44.624;2022-08-20T08:29:03;101480;;;28;23.2
49583;BME280;36329;48.816;44.624;2022-08-20T08:32:06;101483;;;28.2;23.3
49583;BME280;36329;48.816;44.624;2022-08-20T08:35:08;101484;;;28;24
49583;BME280;36329;48.816;44.624;2022-08-20T08:38:10;101482;;;28;22.7
49583;BME280;36329;48.816;44.624;2022-08-20T08:41:16;101481;;;27.9;22.9
49583;BME280;36329;48.816;44.624;2022-08-20T08:44:35;101476;;;28;23.3
49583;BME280;36329;48.816;44.624;2022-08-20T08:47:38;101472;;;28;23.9
49583;BME280;36329;48.816;44.624;2022-08-20T08:50:41;101468;;;28.1;23
49583;BME280;36329;48.816;44.624;2022-08-20T08:53:47;101458;;;28.3;22.4
49583;BME280;36329;48.816;44.624;2022-08-20T08:56:50;101469;;;28.1;22.4
49583;BME280;36329;48.816;44.624;2022-08-20T08:59:55;101459;;;28;23.4
49583;BME280;36329;48.816;44.624;2022-08-20T09:03:00;101461;;;27.8;23.7
49583;BME280;36329;48.816;44.624;2022-08-20T09:06:04;101464;;;27.8;23.1
49583;BME280;36329;48.816;44.624;2022-08-20T09:09:09;101458;;;27.9;23.5
49583;BME280;36329;48.816;44.624;2022-08-20T09:12:17;101460;;;28.1;23.1
49583;BME280;36329;48.816;44.624;2022-08-20T09:15:20;101457;;;27.9;23.8
49583;BME280;36329;48.816;44.624;2022-08-20T09:18:22;101459;;;27.7;24.6
49583;BME280;36329;48.816;44.624;2022-08-20T09:21:24;101455;;;27.8;24.1
49583;BME280;36329;48.816;44.624;2022-08-20T09:24:25;101447;;;27.8;23.3
49583;BME280;36329;48.816;44.624;2022-08-20T09:27:27;101437;;;27.9;23.5
49583;BME280;36329;48.816;44.624;2022-08-20T09:30:28;101437;;;28;23.8
49583;BME280;36329;48.816;44.624;2022-08-20T09:33:30;101439;;;28.3;23.6
49583;BME280;36329;48.816;44.624;2022-08-20T09:36:32;101439;;;28.3;23.7
49583;BME280;36329;48.816;44.624;2022-08-20T09:39:34;101441;;;28.2;23.7
49583;BME280;36329;48.816;44.624;2022-08-20T09:42:37;101426;;;28.1;23.5
49583;BME280;36329;48.816;44.624;2022-08-20T09:45:39;101434;;;28.1;23.8
49583;BME280;36329;48.816;44.624;2022-08-20T09:48:46;101426;;;28;23
49583;BME280;36329;48.816;44.624;2022-08-20T09:51:49;101469;;;28.1;23
49583;BME280;36329;48.816;44.624;2022-08-20T09:54:53;101448;;;28.1;22.6
49583;BME280;36329;48.816;44.624;2022-08-20T09:58:05;101424;;;28.2;22.7
49583;BME280;36329;48.816;44.624;2022-08-20T10:01:12;101421;;;28.5;23
49583;BME280;36329;48.816;44.624;2022-08-20T10:04:24;101419;;;28.6;23.3
49583;BME280;36329;48.816;44.624;2022-08-20T10:07:26;101427;;;28.5;22.6
49583;BME280;36329;48.816;44.624;2022-08-20T10:10:28;101413;;;28.6;22.1
49583;BME280;36329;48.816;44.624;2022-08-20T10:13:29;101423;;;28.9;22.4
49583;BME280;36329;48.816;44.624;2022-08-20T10:16:31;101416;;;29;22
49583;BME280;36329;48.816;44.624;2022-08-20T10:19:33;101412;;;29.1;21.9
49583;BME280;36329;48.816;44.624;2022-08-20T10:22:35;101417;;;28.9;21.9
49583;BME280;36329;48.816;44.624;2022-08-20T10:25:42;101404;;;29.1;21.6
49583;BME280;36329;48.816;44.624;2022-08-20T10:28:44;101416;;;29;22.1
49583;BME280;36329;48.816;44.624;2022-08-20T10:31:46;101425;;;29.2;22.1
49583;BME280;36329;48.816;44.624;2022-08-20T10:34:47;101423;;;29.1;22.3
49583;BME280;36329;48.816;44.624;2022-08-20T10:37:49;101424;;;29.1;21.6
49583;BME280;36329;48.816;44.624;2022-08-20T10:40:56;101420;;;29.1;21.6
49583;BME280;36329;48.816;44.624;2022-08-20T10:43:58;101425;;;29.2;21.3
49583;BME280;36329;48.816;44.624;2022-08-20T10:47:14;101410;;;29.2;21.5
49583;BME280;36329;48.816;44.624;2022-08-20T10:50:22;101415;;;29.5;21.3
49583;BME280;36329;48.816;44.624;2022-08-20T10:53:23;101417;;;29;21.3
49583;BME280;36329;48.816;44.624;2022-08-20T10:56:25;101412;;;29;22.1
49583;BME280;36329;48.816;44.624;2022-08-20T10:59:27;101419;;;29.2;22.3
49583;BME280;36329;48.816;44.624;2022-08-20T11:02:28;101415;;;28.9;22.6
49583;BME280;36329;48.816;44.624;2022-08-20T11:05:30;101426;;;28.8;22.4
49583;BME280;36329;48.816;44.624;2022-08-20T11:08:42;101431;;;28.8;22.4
49583;BME280;36329;48.816;44.624;2022-08-20T11:11:44;101436;;;28.8;22.9
49583;BME280;36329;48.816;44.624;2022-08-20T11:14:46;101449;;;28.6;22.2
49583;BME280;36329;48.816;44.624;2022-08-20T11:17:50;101449;;;28.6;22.1
49583;BME280;36329;48.816;44.624;2022-08-20T11:20:57;101450;;;28.7;22
49583;BME280;36329;48.816;44.624;2022-08-20T11:23:59;101441;;;28.8;21.9
49583;BME280;36329;48.816;44.624;2022-08-20T11:27:01;101446;;;28.8;21.3
49583;BME280;36329;48.816;44.624;2022-08-20T11:30:03;101423;;;28.8;21.2
49583;BME280;36329;48.816;44.624;2022-08-20T11:33:06;101446;;;28.8;20.8
49583;BME280;36329;48.816;44.624;2022-08-20T11:36:08;101462;;;28.8;20.7
49583;BME280;36329;48.816;44.624;2022-08-20T11:39:10;101437;;;29;20.4
49583;BME280;36329;48.816;44.624;2022-08-20T11:42:21;101436;;;29;20.1
49583;BME280;36329;48.816;44.624;2022-08-20T11:45:23;101427;;;29.1;19.4
49583;BME280;36329;48.816;44.624;2022-08-20T11:48:25;101439;;;29.1;19.3
49583;BME280;36329;48.816;44.624;2022-08-20T11:51:27;101420;;;29;19.1
49583;BME280;36329;48.816;44.624;2022-08-20T11:54:29;101434;;;29.1;20.3
49583;BME280;36329;48.816;44.624;2022-08-20T11:57:32;101440;;;29;20.6
49583;BME280;36329;48.816;44.624;2022-08-20T12:00:34;101434;;;28.9;20.5
49583;BME280;36329;48.816;44.624;2022-08-20T12:03:36;101437;;;28.9;21.3
49583;BME280;36329;48.816;44.624;2022-08-20T12:06:37;101432;;;28.7;21.1
49583;BME280;36329;48.816;44.624;2022-08-20T12:09:40;101450;;;28.6;20.2
49583;BME280;36329;48.816;44.624;2022-08-20T12:12:47;101442;;;28.6;20.5
49583;BME280;36329;48.816;44.624;2022-08-20T12:15:49;101440;;;28.5;20.7
49583;BME280;36329;48.816;44.624;2022-08-20T12:18:50;101474;;;28.4;19.9
49583;BME280;36329;48.816;44.624;2022-08-20T12:21:52;101441;;;28.4;21
49583;BME280;36329;48.816;44.624;2022-08-20T12:25:06;101433;;;28.4;20.6
49583;BME280;36329;48.816;44.624;2022-08-20T12:28:19;101428;;;28.4;20.5
49583;BME280;36329;48.816;44.624;2022-08-20T12:31:21;101435;;;28.4;20
49583;BME280;36329;48.816;44.624;2022-08-20T12:34:28;101416;;;28.4;19.5
49583;BME280;36329;48.816;44.624;2022-08-20T12:37:30;101430;;;28.4;19.8
49583;BME280;36329;48.816;44.624;2022-08-20T12:40:33;101438;;;28.4;21.2
49583;BME280;36329;48.816;44.624;2022-08-20T12:43:34;101427;;;28.5;20.3
49583;BME280;36329;48.816;44.624;2022-08-20T12:46:36;101432;;;28.5;19.8
49583;BME280;36329;48.816;44.624;2022-08-20T12:49:39;101432;;;28.6;20.4
49583;BME280;36329;48.816;44.624;2022-08-20T12:52:41;101424;;;28.6;20
49583;BME280;36329;48.816;44.624;2022-08-20T12:55:43;101424;;;28.7;19.8
49583;BME280;36329;48.816;44.624;2022-08-20T12:58:45;101429;;;28.8;20.5
49583;BME280;36329;48.816;44.624;2022-08-20T13:01:47;101434;;;28.6;20.5
49583;BME280;36329;48.816;44.624;2022-08-20T13:04:49;101439;;;28.6;20.9
49583;BME280;36329;48.816;44.624;2022-08-20T13:07:51;101421;;;28.5;20.2
49583;BME280;36329;48.816;44.624;2022-08-20T13:10:52;101428;;;28.5;20.2
49583;BME280;36329;48.816;44.624;2022-08-20T13:13:54;101424;;;28.3;19.6
49583;BME280;36329;48.816;44.624;2022-08-20T13:16:56;101435;;;28.4;20.3
49583;BME280;36329;48.816;44.624;2022-08-20T13:20:04;101443;;;28.2;19.7
49583;BME280;36329;48.816;44.624;2022-08-20T13:23:11;101438;;;28.1;19.8
49583;BME280;36329;48.816;44.624;2022-08-20T13:26:13;101427;;;28.1;18.9
49583;BME280;36329;48.816;44.624;2022-08-20T13:29:15;101435;;;28;18.6
49583;BME280;36329;48.816;44.624;2022-08-20T13:32:18;101460;;;27.9;19.1
49583;BME280;36329;48.816;44.624;2022-08-20T13:35:21;101429;;;27.9;18.9
49583;BME280;36329;48.816;44.624;2022-08-20T13:38:23;101426;;;27.8;19
49583;BME280;36329;48.816;44.624;2022-08-20T13:41:24;101443;;;27.8;19.6
49583;BME280;36329;48.816;44.624;2022-08-20T13:44:26;101451;;;27.7;19.4
49583;BME280;36329;48.816;44.624;2022-08-20T13:47:33;101438;;;27.7;18.3
49583;BME280;36329;48.816;44.624;2022-08-20T13:50:46;101437;;;27.7;18
49583;BME280;36329;48.816;44.624;2022-08-20T13:53:53;101449;;;27.7;18.1
49583;BME280;36329;48.816;44.624;2022-08-20T13:57:02;101447;;;27.7;17.9
49583;BME280;36329;48.816;44.624;2022-08-20T14:00:06;101453;;;27.7;18.9
49583;BME280;36329;48.816;44.624;2022-08-20T14:03:09;101454;;;27.6;18.9
49583;BME280;36329;48.816;44.624;2022-08-20T14:06:11;101457;;;27.6;19
49583;BME280;36329;48.816;44.624;2022-08-20T14:09:13;101451;;;27.5;18.7
49583;BME280;36329;48.816;44.624;2022-08-20T14:12:15;101450;;;27.6;18.3
49583;BME280;36329;48.816;44.624;2022-08-20T14:15:17;101463;;;27.6;17.9
49583;BME280;36329;48.816;44.624;2022-08-20T14:18:19;101459;;;27.6;18.6
49583;BME280;36329;48.816;44.624;2022-08-20T14:21:27;101473;;;27.5;18.8
49583;BME280;36329;48.816;44.624;2022-08-20T14:24:34;101463;;;27.5;19.4
49583;BME280;36329;48.816;44.624;2022-08-20T14:27:35;101459;;;27.5;18.9
49583;BME280;36329;48.816;44.624;2022-08-20T14:30:43;101460;;;27.4;18.3
49583;BME280;36329;48.816;44.624;2022-08-20T14:33:44;101460;;;27.5;19.2
49583;BME280;36329;48.816;44.624;2022-08-20T14:36:46;101463;;;27.5;18.3
49583;BME280;36329;48.816;44.624;2022-08-20T14:39:54;101473;;;27.4;18.1
49583;BME280;36329;48.816;44.624;2022-08-20T14:42:56;101467;;;27.4;18.7
49583;BME280;36329;48.816;44.624;2022-08-20T14:46:03;101466;;;27.4;19.6
49583;BME280;36329;48.816;44.624;2022-08-20T14:49:05;101461;;;27.3;19.5
49583;BME280;36329;48.816;44.624;2022-08-20T14:52:07;101461;;;27.2;19.6
49583;BME280;36329;48.816;44.624;2022-08-20T14:55:18;101466;;;27.1;19.9
49583;BME280;36329;48.816;44.624;2022-08-20T14:58:21;101471;;;27.1;20.2
49583;BME280;36329;48.816;44.624;2022-08-20T15:01:23;101469;;;27.1;20.3
49583;BME280;36329;48.816;44.624;2022-08-20T15:04:24;101471;;;27;19.4
49583;BME280;36329;48.816;44.624;2022-08-20T15:07:28;101455;;;27;19.7
49583;BME280;36329;48.816;44.624;2022-08-20T15:10:31;101464;;;27;19.5
49583;BME280;36329;48.816;44.624;2022-08-20T15:13:33;101451;;;26.9;19.6
49583;BME280;36329;48.816;44.624;2022-08-20T15:16:35;101446;;;26.9;20
49583;BME280;36329;48.816;44.624;2022-08-20T15:19:42;101456;;;26.9;20.2
49583;BME280;36329;48.816;44.624;2022-08-20T15:22:50;101446;;;26.8;19.6
49583;BME280;36329;48.816;44.624;2022-08-20T15:25:51;101448;;;26.8;19.5
49583;BME280;36329;48.816;44.624;2022-08-20T15:28:53;101453;;;26.7;19.1
49583;BME280;36329;48.816;44.624;2022-08-20T15:31:54;101455;;;26.7;19.5
49583;BME280;36329;48.816;44.624;2022-08-20T15:34:56;101467;;;26.7;18.9
49583;BME280;36329;48.816;44.624;2022-08-20T15:38:03;101473;;;26.6;19.1
49583;BME280;36329;48.816;44.624;2022-08-20T15:41:10;101482;;;26.6;18.6
49583;BME280;36329;48.816;44.624;2022-08-20T15:44:12;101482;;;26.5;18.8
49583;BME280;36329;48.816;44.624;2022-08-20T15:47:19;101475;;;26.5;18.3
49583;BME280;36329;48.816;44.624;2022-08-20T15:50:32;101488;;;26.4;18.5
49583;BME280;36329;48.816;44.624;2022-08-20T15:53:47;101494;;;26.4;18.4
49583;BME280;36329;48.816;44.624;2022-08-20T15:57:01;101500;;;26.3;18.1
49583;BME280;36329;48.816;44.624;2022-08-20T16:00:08;101504;;;26.2;18.1
49583;BME280;36329;48.816;44.624;2022-08-20T16:03:27;101509;;;26.2;17.7
49583;BME280;36329;48.816;44.624;2022-08-20T16:06:32;101509;;;26.2;17.5
49583;BME280;36329;48.816;44.624;2022-08-20T16:09:42;101511;;;26.1;18.3
49583;BME280;36329;48.816;44.624;2022-08-20T16:12:49;101518;;;26.1;17.6
49583;BME280;36329;48.816;44.624;2022-08-20T16:16:00;101528;;;26;17.9
49583;BME280;36329;48.816;44.624;2022-08-20T16:19:03;101541;;;26;17.9
49583;BME280;36329;48.816;44.624;2022-08-20T16:22:06;101539;;;26;17.8
49583;BME280;36329;48.816;44.624;2022-08-20T16:25:12;101538;;;25.9;17.4
49583;BME280;36329;48.816;44.624;2022-08-20T16:28:21;101542;;;25.9;17.7
49583;BME280;36329;48.816;44.624;2022-08-20T16:31:27;101546;;;25.9;18
49583;BME280;36329;48.816;44.624;2022-08-20T16:34:36;101560;;;25.8;17.8
49583;BME280;36329;48.816;44.624;2022-08-20T16:37:44;101556;;;25.8;18.2
49583;BME280;36329;48.816;44.624;2022-08-20T16:40:50;101561;;;25.8;17.9
49583;BME280;36329;48.816;44.624;2022-08-20T16:43:56;101579;;;25.7;18
49583;BME280;36329;48.816;44.624;2022-08-20T16:47:13;101561;;;25.7;18.2
49583;BME280;36329;48.816;44.624;2022-08-20T16:50:18;101576;;;25.7;17.8
49583;BME280;36329;48.816;44.624;2022-08-20T16:53:22;101561;;;25.7;17.8
49583;BME280;36329;48.816;44.624;2022-08-20T16:56:36;101568;;;25.6;17.9
49583;BME280;36329;48.816;44.624;2022-08-20T17:00:05;101570;;;25.6;18.3
49583;BME280;36329;48.816;44.624;2022-08-20T17:03:08;101577;;;25.6;18.1